createdAt,value
2022-11-26T00:02:25.131Z,33.40
2022-11-26T00:04:54.429Z,33.70
2022-11-26T00:07:26.652Z,29.30
2022-11-26T00:09:55.791Z,30.97
2022-11-26T00:12:25.616Z,30.73
2022-11-26T00:14:54.085Z,31.33
2022-11-26T00:17:23.991Z,28.57
2022-11-26T00:19:52.357Z,31.33
2022-11-26T00:22:26.771Z,26.93
2022-11-26T00:24:55.816Z,27.03
2022-11-26T00:27:27.292Z,29.60
2022-11-26T00:29:56.317Z,30.43
2022-11-26T00:32:27.527Z,29.50
2022-11-26T00:34:55.912Z,28.40
2022-11-26T00:37:26.928Z,30.37
2022-11-26T00:39:56.124Z,27.27
2022-11-26T00:42:24.440Z,30.07
2022-11-26T00:44:52.663Z,33.13
2022-11-26T00:47:20.853Z,25.83
2022-11-26T00:49:50.433Z,28.00
2022-11-26T00:52:27.657Z,24.50
2022-11-26T00:54:55.930Z,26.20
2022-11-26T00:57:24.171Z,29.03
2022-11-26T00:59:52.328Z,25.40
2022-11-26T01:02:20.796Z,25.57
2022-11-26T01:04:50.441Z,24.47
2022-11-26T01:07:18.672Z,26.00
2022-11-26T01:09:48.354Z,27.67
2022-11-26T01:12:16.675Z,30.90
2022-11-26T01:14:44.920Z,31.60
2022-11-26T01:17:13.603Z,25.43
2022-11-26T01:19:42.411Z,25.53
2022-11-26T01:22:21.053Z,25.70
2022-11-26T01:24:49.555Z,25.13
2022-11-26T01:27:20.426Z,23.03
2022-11-26T01:29:48.679Z,23.33
2022-11-26T01:32:16.893Z,25.73
2022-11-26T01:34:45.115Z,25.33
2022-11-26T01:37:15.406Z,26.67
2022-11-26T01:39:43.580Z,26.03
2022-11-26T01:42:25.981Z,23.73
2022-11-26T01:44:54.299Z,26.53
2022-11-26T01:47:24.855Z,25.03
2022-11-26T01:50:29.632Z,25.00
2022-11-26T01:53:02.342Z,27.00
2022-11-26T01:55:35.752Z,29.77
2022-11-26T01:58:05.515Z,21.67
2022-11-26T02:00:33.732Z,25.13
2022-11-26T02:03:02.786Z,28.23
2022-11-26T02:05:35.754Z,27.43
2022-11-26T02:08:06.523Z,24.03
2022-11-26T02:10:35.390Z,23.47
2022-11-26T02:13:03.718Z,22.27
2022-11-26T02:15:42.728Z,22.80
2022-11-26T02:18:11.248Z,24.50
2022-11-26T02:20:51.339Z,24.50
2022-11-26T02:23:59.322Z,26.17
2022-11-26T02:26:57.719Z,24.33
2022-11-26T02:29:41.617Z,26.03
2022-11-26T02:32:14.861Z,30.67
2022-11-26T02:34:49.717Z,24.23
2022-11-26T02:37:22.968Z,27.73
2022-11-26T02:39:52.644Z,20.57
2022-11-26T02:42:26.477Z,21.63
2022-11-26T02:44:58.613Z,22.97
2022-11-26T02:47:29.588Z,24.17
2022-11-26T02:50:00.277Z,24.20
2022-11-26T02:52:29.219Z,24.87
2022-11-26T02:54:58.856Z,18.13
2022-11-26T02:57:31.632Z,21.10
2022-11-26T03:00:01.601Z,20.33
2022-11-26T03:02:35.821Z,21.80
2022-11-26T03:05:06.266Z,22.47
2022-11-26T03:07:36.532Z,25.70
2022-11-26T03:10:07.395Z,20.40
2022-11-26T03:12:35.504Z,23.70
2022-11-26T03:15:05.560Z,23.93
2022-11-26T03:17:36.909Z,22.40
2022-11-26T03:20:06.168Z,19.87
2022-11-26T03:22:34.883Z,23.07
2022-11-26T03:25:03.220Z,20.90
2022-11-26T03:27:33.107Z,18.67
2022-11-26T03:30:01.385Z,22.47
2022-11-26T03:32:30.987Z,24.80
2022-11-26T03:34:59.367Z,20.37
2022-11-26T03:37:27.653Z,23.03
2022-11-26T03:39:55.810Z,21.10
2022-11-26T03:42:24.582Z,24.67
2022-11-26T03:44:52.794Z,23.43
2022-11-26T03:47:20.952Z,24.10
2022-11-26T03:49:50.509Z,18.60
2022-11-26T03:52:18.651Z,22.63
2022-11-26T03:54:47.181Z,22.47
2022-11-26T03:57:15.427Z,22.57
2022-11-26T03:59:43.665Z,22.67
2022-11-26T04:02:11.871Z,23.20
2022-11-26T04:04:40.328Z,22.50
2022-11-26T04:07:10.037Z,17.20
2022-11-26T04:09:38.322Z,22.70
2022-11-26T04:12:06.754Z,17.63
2022-11-26T04:14:35.236Z,19.10
2022-11-26T04:17:03.569Z,25.93
2022-11-26T04:19:31.981Z,21.63
2022-11-26T04:22:00.186Z,22.60
2022-11-26T04:24:30.418Z,25.30
2022-11-26T04:26:58.650Z,19.70
2022-11-26T04:29:26.832Z,15.97
2022-11-26T04:31:55.027Z,15.07
2022-11-26T04:34:23.280Z,16.90
2022-11-26T04:36:51.499Z,20.87
2022-11-26T04:39:19.753Z,16.10
2022-11-26T04:41:49.922Z,19.93
2022-11-26T04:44:18.140Z,22.27
2022-11-26T04:46:46.344Z,19.27
2022-11-26T04:49:14.523Z,24.93
2022-11-26T04:51:42.724Z,27.10
2022-11-26T04:54:13.157Z,21.80
2022-11-26T04:56:42.012Z,15.67
2022-11-26T04:59:11.561Z,24.07
2022-11-26T05:01:39.852Z,19.13
2022-11-26T05:04:08.171Z,18.80
2022-11-26T05:06:36.328Z,20.87
2022-11-26T05:09:04.672Z,21.23
2022-11-26T05:11:32.877Z,22.77
2022-11-26T05:14:01.695Z,19.60
2022-11-26T05:16:31.442Z,23.47
2022-11-26T05:18:59.732Z,20.97
2022-11-26T05:21:27.915Z,17.90
2022-11-26T05:23:56.089Z,22.23
2022-11-26T05:26:24.349Z,23.00
2022-11-26T05:28:52.600Z,20.23
2022-11-26T05:31:20.775Z,19.90
2022-11-26T05:33:50.392Z,23.47
2022-11-26T05:36:18.604Z,23.17
2022-11-26T05:38:46.779Z,18.33
2022-11-26T05:41:15.013Z,21.23
2022-11-26T05:43:43.811Z,18.77
2022-11-26T05:46:16.026Z,18.37
2022-11-26T05:48:44.352Z,20.23
2022-11-26T05:51:13.979Z,24.47
2022-11-26T05:53:42.171Z,17.53
2022-11-26T05:56:10.383Z,21.40
2022-11-26T05:58:38.685Z,21.10
2022-11-26T06:01:09.287Z,19.07
2022-11-26T06:03:38.442Z,18.57
2022-11-26T06:06:07.497Z,19.87
2022-11-26T06:08:37.108Z,21.57
2022-11-26T06:11:05.401Z,19.97
2022-11-26T06:13:33.596Z,19.73
2022-11-26T06:16:01.857Z,20.17
2022-11-26T06:18:30.097Z,28.60
2022-11-26T06:21:01.140Z,25.13
2022-11-26T06:23:29.464Z,50.90
2022-11-26T06:25:59.128Z,19.07
2022-11-26T06:28:27.426Z,21.93
2022-11-26T06:30:55.649Z,24.33
2022-11-26T06:33:23.843Z,60.23
2022-11-26T06:35:52.035Z,29.83
2022-11-26T06:38:20.267Z,25.80
2022-11-26T06:40:48.498Z,87.60
2022-11-26T06:43:18.047Z,81.67
2022-11-26T06:45:46.950Z,87.50
2022-11-26T06:48:15.178Z,74.63
2022-11-26T06:50:43.363Z,51.80
2022-11-26T06:53:11.678Z,44.70
2022-11-26T06:55:40.477Z,46.50
2022-11-26T06:58:08.670Z,25.60
2022-11-26T07:00:38.303Z,43.07
2022-11-26T07:03:06.514Z,19.83
2022-11-26T07:05:35.707Z,67.40
2022-11-26T07:08:04.288Z,32.40
2022-11-26T07:10:32.511Z,31.30
2022-11-26T07:13:00.698Z,45.70
2022-11-26T07:15:28.912Z,42.63
2022-11-26T07:18:00.123Z,28.80
2022-11-26T07:20:53.428Z,25.83
2022-11-26T07:23:21.647Z,19.20
2022-11-26T07:26:16.038Z,25.70
2022-11-26T07:28:44.327Z,18.90
2022-11-26T07:31:16.890Z,22.23
2022-11-26T07:33:49.299Z,23.03
2022-11-26T07:36:20.448Z,54.60
2022-11-26T07:38:49.573Z,110.20
2022-11-26T07:41:20.498Z,23.10
2022-11-26T07:43:49.844Z,62.47
2022-11-26T07:46:21.110Z,26.57
2022-11-26T07:48:51.432Z,17.73
2022-11-26T07:51:44.614Z,16.87
2022-11-26T07:54:16.771Z,23.90
2022-11-26T07:56:45.152Z,17.10
2022-11-26T07:59:13.777Z,20.47
2022-11-26T08:01:44.542Z,25.83
2022-11-26T08:04:14.363Z,18.33
2022-11-26T08:06:42.877Z,18.33
2022-11-26T08:09:12.290Z,14.83
2022-11-26T08:11:40.729Z,21.20
2022-11-26T08:14:11.703Z,17.10
2022-11-26T08:16:40.584Z,17.83
2022-11-26T08:19:15.743Z,31.77
2022-11-26T08:21:44.179Z,19.77
2022-11-26T08:24:15.544Z,16.17
2022-11-26T08:26:45.066Z,40.57
2022-11-26T08:29:20.580Z,23.03
2022-11-26T08:31:49.590Z,24.53
2022-11-26T08:34:20.677Z,23.67
2022-11-26T08:36:49.073Z,26.03
2022-11-26T08:39:19.385Z,18.97
2022-11-26T08:41:52.140Z,19.47
2022-11-26T08:44:26.068Z,27.10
2022-11-26T08:47:19.928Z,28.97
2022-11-26T08:49:49.731Z,18.13
2022-11-26T08:52:18.129Z,18.90
2022-11-26T08:54:46.869Z,19.53
2022-11-26T08:57:15.463Z,20.63
2022-11-26T08:59:43.811Z,28.07
2022-11-26T09:02:17.352Z,21.43
2022-11-26T09:04:47.002Z,21.73
2022-11-26T09:07:17.272Z,31.57
2022-11-26T09:09:45.881Z,17.47
2022-11-26T09:12:14.157Z,18.17
2022-11-26T09:14:43.308Z,20.90
2022-11-26T09:17:13.318Z,20.63
2022-11-26T09:19:41.611Z,18.67
2022-11-26T09:22:09.922Z,16.97
2022-11-26T09:24:39.777Z,19.23
2022-11-26T09:27:08.458Z,18.03
2022-11-26T09:29:37.662Z,17.57
2022-11-26T09:32:23.425Z,16.17
2022-11-26T09:34:54.397Z,20.00
2022-11-26T09:37:23.056Z,24.63
2022-11-26T09:39:54.670Z,28.80
2022-11-26T09:42:34.911Z,19.73
2022-11-26T09:45:13.356Z,21.80
2022-11-26T09:47:43.669Z,19.57
2022-11-26T09:50:31.656Z,19.43
2022-11-26T09:53:03.491Z,34.57
2022-11-26T09:55:35.133Z,37.43
2022-11-26T09:58:11.486Z,20.10
2022-11-26T10:00:42.517Z,22.10
2022-11-26T10:03:15.203Z,42.80
2022-11-26T10:05:49.117Z,18.50
2022-11-26T10:08:31.249Z,38.00
2022-11-26T10:11:07.661Z,52.27
2022-11-26T10:13:45.594Z,26.70
2022-11-26T10:16:26.368Z,36.60
2022-11-26T10:19:03.617Z,42.77
2022-11-26T10:21:58.293Z,26.00
2022-11-26T10:24:30.866Z,22.70
2022-11-26T10:27:02.692Z,23.97
2022-11-26T10:29:38.303Z,16.40
2022-11-26T10:32:15.823Z,19.70
2022-11-26T10:34:48.713Z,24.37
2022-11-26T10:37:17.197Z,23.20
2022-11-26T10:39:45.597Z,23.03
2022-11-26T10:42:19.148Z,33.27
2022-11-26T10:44:48.767Z,21.00
2022-11-26T10:47:23.779Z,21.13
2022-11-26T10:49:53.545Z,26.80
2022-11-26T10:52:25.967Z,18.83
2022-11-26T10:55:19.852Z,22.90
2022-11-26T10:57:53.249Z,17.37
2022-11-26T11:00:34.714Z,21.43
2022-11-26T11:03:04.856Z,15.53
2022-11-26T11:05:34.524Z,18.17
2022-11-26T11:08:02.977Z,18.90
2022-11-26T11:10:31.745Z,17.57
2022-11-26T11:13:12.496Z,18.13
2022-11-26T11:15:41.687Z,12.90
2022-11-26T11:18:20.266Z,18.60
2022-11-26T11:20:57.208Z,17.00
2022-11-26T11:23:40.318Z,17.20
2022-11-26T11:26:20.931Z,12.77
2022-11-26T11:28:53.076Z,17.33
2022-11-26T11:31:22.940Z,15.00
2022-11-26T11:33:52.672Z,17.10
2022-11-26T11:36:28.402Z,16.83
2022-11-26T11:38:58.501Z,12.70
2022-11-26T11:41:31.313Z,16.33
2022-11-26T11:44:12.209Z,17.50
2022-11-26T11:47:03.676Z,19.70
2022-11-26T11:49:46.189Z,12.37
2022-11-26T11:52:23.995Z,13.57
2022-11-26T11:55:00.150Z,15.90
2022-11-26T11:57:45.479Z,12.67
2022-11-26T12:00:18.072Z,18.83
2022-11-26T12:03:10.800Z,19.73
2022-11-26T12:05:56.750Z,18.17
2022-11-26T12:08:39.344Z,19.53
2022-11-26T12:11:23.655Z,16.13
2022-11-26T12:13:56.902Z,21.50
2022-11-26T12:16:29.917Z,19.60
2022-11-26T12:19:02.544Z,16.63
2022-11-26T12:21:36.036Z,16.37
2022-11-26T12:24:10.288Z,24.73
2022-11-26T12:26:42.444Z,21.23
2022-11-26T12:29:17.455Z,22.60
2022-11-26T12:31:50.171Z,17.90
2022-11-26T12:34:32.587Z,20.20
2022-11-26T12:37:05.090Z,17.33
2022-11-26T12:39:40.239Z,23.70
2022-11-26T12:42:16.584Z,22.13
2022-11-26T12:44:49.349Z,19.20
2022-11-26T12:47:27.217Z,19.50
2022-11-26T12:50:08.437Z,19.60
2022-11-26T12:52:43.180Z,18.73
2022-11-26T12:55:20.588Z,16.17
2022-11-26T12:57:53.996Z,23.50
2022-11-26T13:00:30.154Z,27.30
2022-11-26T13:03:03.484Z,22.07
2022-11-26T13:05:37.836Z,29.03
2022-11-26T13:08:20.313Z,24.63
2022-11-26T13:11:07.202Z,24.43
2022-11-26T13:13:45.043Z,26.77
2022-11-26T13:16:23.477Z,29.63
2022-11-26T13:18:56.565Z,21.40
2022-11-26T13:21:39.204Z,23.20
2022-11-26T13:24:23.492Z,20.70
2022-11-26T13:27:07.718Z,25.90
2022-11-26T13:30:11.700Z,23.43
2022-11-26T13:32:57.162Z,19.50
2022-11-26T13:35:49.381Z,21.13
2022-11-26T13:38:25.681Z,22.93
2022-11-26T13:41:16.915Z,17.43
2022-11-26T13:44:15.138Z,22.63
2022-11-26T13:46:47.769Z,19.27
2022-11-26T13:49:21.374Z,17.20
2022-11-26T13:51:55.502Z,17.23
2022-11-26T13:54:27.670Z,17.67
2022-11-26T13:57:02.307Z,20.83
2022-11-26T13:59:31.459Z,19.23
2022-11-26T14:01:59.891Z,19.43
2022-11-26T14:04:58.391Z,15.10
2022-11-26T14:07:28.402Z,20.03
2022-11-26T14:10:00.068Z,17.30
2022-11-26T14:13:01.632Z,18.07
2022-11-26T14:15:56.272Z,21.47
2022-11-26T14:19:07.536Z,15.87
2022-11-26T14:22:00.274Z,20.07
2022-11-26T14:24:58.109Z,19.03
2022-11-26T14:27:29.273Z,18.20
2022-11-26T14:30:02.508Z,18.37
2022-11-26T14:32:36.932Z,17.67
2022-11-26T14:35:16.586Z,17.73
2022-11-26T14:37:52.994Z,18.37
2022-11-26T14:40:25.946Z,19.47
2022-11-26T14:43:15.382Z,16.33
2022-11-26T14:45:44.670Z,20.07
2022-11-26T14:48:24.844Z,16.03
2022-11-26T14:50:54.809Z,17.77
2022-11-26T14:53:26.406Z,17.80
2022-11-26T14:55:57.181Z,20.13
2022-11-26T14:58:30.933Z,20.37
2022-11-26T15:01:04.711Z,17.40
2022-11-26T15:03:33.229Z,19.03
2022-11-26T15:06:01.493Z,21.20
2022-11-26T15:08:29.775Z,18.93
2022-11-26T15:11:03.735Z,18.07
2022-11-26T15:13:34.883Z,21.87
2022-11-26T15:16:05.537Z,22.00
2022-11-26T15:18:36.973Z,17.73
2022-11-26T15:21:06.697Z,20.27
2022-11-26T15:23:40.017Z,18.23
2022-11-26T15:26:18.275Z,22.00
2022-11-26T15:28:46.697Z,19.73
2022-11-26T15:31:15.044Z,23.10
2022-11-26T15:33:44.341Z,20.33
2022-11-26T15:36:17.438Z,25.23
2022-11-26T15:39:03.016Z,18.20
2022-11-26T15:41:33.236Z,22.00
2022-11-26T15:44:03.385Z,21.60
2022-11-26T15:46:34.042Z,21.10
2022-11-26T15:49:04.796Z,25.87
2022-11-26T15:51:37.422Z,31.90
2022-11-26T15:54:07.540Z,24.80
2022-11-26T15:56:39.800Z,25.03
2022-11-26T15:59:16.266Z,24.30
2022-11-26T16:01:46.319Z,24.60
2022-11-26T16:04:44.695Z,21.43
2022-11-26T16:07:15.003Z,26.60
2022-11-26T16:09:43.787Z,23.40
2022-11-26T16:12:28.043Z,24.33
2022-11-26T16:15:19.702Z,24.60
2022-11-26T16:17:49.661Z,23.30
2022-11-26T16:20:20.449Z,23.40
2022-11-26T16:22:50.891Z,22.30
2022-11-26T16:25:24.448Z,24.53
2022-11-26T16:28:13.943Z,20.37
2022-11-26T16:30:44.918Z,23.87
2022-11-26T16:33:13.257Z,23.17
2022-11-26T16:35:46.495Z,20.03
2022-11-26T16:38:21.478Z,23.60
2022-11-26T16:40:50.432Z,20.20
2022-11-26T16:43:20.601Z,19.33
2022-11-26T16:45:50.542Z,21.10
2022-11-26T16:48:25.098Z,20.70
2022-11-26T16:50:56.570Z,21.20
2022-11-26T16:53:25.225Z,25.30
2022-11-26T16:55:55.293Z,23.10
2022-11-26T16:58:27.996Z,22.60
2022-11-26T17:00:56.976Z,23.80
2022-11-26T17:03:27.410Z,23.40
2022-11-26T17:05:59.468Z,20.43
2022-11-26T17:08:29.181Z,26.13
2022-11-26T17:10:57.791Z,23.80
2022-11-26T17:13:29.578Z,23.00
2022-11-26T17:15:58.300Z,25.83
2022-11-26T17:18:27.259Z,20.33
2022-11-26T17:20:55.669Z,21.63
2022-11-26T17:23:24.059Z,20.17
2022-11-26T17:25:54.161Z,20.57
2022-11-26T17:28:23.282Z,21.47
2022-11-26T17:30:53.118Z,20.93
2022-11-26T17:33:21.441Z,28.60
2022-11-26T17:35:49.791Z,22.57
2022-11-26T17:38:44.111Z,22.23
2022-11-26T17:41:12.632Z,29.37
2022-11-26T17:43:41.045Z,22.60
2022-11-26T17:46:16.037Z,21.77
2022-11-26T17:48:44.570Z,19.77
2022-11-26T17:51:14.430Z,21.40
2022-11-26T17:53:43.702Z,23.97
2022-11-26T17:56:20.252Z,23.97
2022-11-26T17:58:48.778Z,28.93
2022-11-26T18:01:19.240Z,28.63
2022-11-26T18:03:48.304Z,25.83
2022-11-26T18:06:18.363Z,36.90
2022-11-26T18:08:47.540Z,29.43
2022-11-26T18:11:17.322Z,25.70
2022-11-26T18:13:46.203Z,25.50
2022-11-26T18:16:14.496Z,28.60
2022-11-26T18:18:44.242Z,23.30
2022-11-26T18:21:13.655Z,25.03
2022-11-26T18:23:47.701Z,26.43
2022-11-26T18:26:18.611Z,24.13
2022-11-26T18:28:46.876Z,19.77
2022-11-26T18:31:15.235Z,24.87
2022-11-26T18:33:44.926Z,23.00
2022-11-26T18:36:13.843Z,21.87
2022-11-26T18:38:42.375Z,24.83
2022-11-26T18:41:10.699Z,25.10
2022-11-26T18:43:40.145Z,23.37
2022-11-26T18:46:11.468Z,24.30
2022-11-26T18:48:40.952Z,25.77
2022-11-26T18:51:11.714Z,29.33
2022-11-26T18:53:40.321Z,29.63
2022-11-26T18:56:09.904Z,28.13
2022-11-26T18:58:38.407Z,28.07
2022-11-26T19:01:14.127Z,25.93
2022-11-26T19:03:44.240Z,24.97
2022-11-26T19:06:18.614Z,24.67
2022-11-26T19:08:47.760Z,24.20
2022-11-26T19:11:18.780Z,24.30
2022-11-26T19:13:47.941Z,27.40
2022-11-26T19:16:19.766Z,27.93
2022-11-26T19:18:48.841Z,22.47
2022-11-26T19:21:21.193Z,22.43
2022-11-26T19:23:49.863Z,26.40
2022-11-26T19:26:19.181Z,21.53
2022-11-26T19:28:48.186Z,17.70
2022-11-26T19:31:18.904Z,17.97
2022-11-26T19:33:48.279Z,19.27
2022-11-26T19:36:17.761Z,20.00
2022-11-26T19:38:47.835Z,18.43
2022-11-26T19:41:17.459Z,26.03
2022-11-26T19:43:47.378Z,23.30
2022-11-26T19:46:17.292Z,20.03
2022-11-26T19:48:47.147Z,19.50
2022-11-26T19:51:17.329Z,21.87
2022-11-26T19:53:49.959Z,20.13
2022-11-26T19:56:19.715Z,19.43
2022-11-26T19:58:48.513Z,19.83
2022-11-26T20:01:18.739Z,21.00
2022-11-26T20:03:47.106Z,21.03
2022-11-26T20:06:18.706Z,19.07
2022-11-26T20:08:47.788Z,23.03
2022-11-26T20:11:18.735Z,22.57
2022-11-26T20:13:48.978Z,19.17
2022-11-26T20:16:19.616Z,21.90
2022-11-26T20:18:49.005Z,19.93
2022-11-26T20:21:19.691Z,18.83
2022-11-26T20:23:48.572Z,18.33
2022-11-26T20:26:21.724Z,21.30
2022-11-26T20:28:50.715Z,21.20
2022-11-26T20:31:23.578Z,25.17
2022-11-26T20:33:53.137Z,23.70
2022-11-26T20:36:22.935Z,23.80
2022-11-26T20:38:54.286Z,24.43
2022-11-26T20:41:26.326Z,24.57
2022-11-26T20:43:59.031Z,27.70
2022-11-26T20:46:28.872Z,28.03
2022-11-26T20:48:57.840Z,24.27
2022-11-26T20:55:36.509Z,27.23
2022-11-26T20:58:06.095Z,25.37
2022-11-26T21:00:34.327Z,21.80
2022-11-26T21:03:02.764Z,20.97
2022-11-26T21:05:31.039Z,22.87
2022-11-26T21:08:00.748Z,27.97
2022-11-26T21:10:29.173Z,26.93
2022-11-26T21:12:57.422Z,27.67
2022-11-26T21:15:27.037Z,25.53
2022-11-26T21:17:55.368Z,25.60
2022-11-26T21:20:24.764Z,24.80
2022-11-26T21:22:52.929Z,30.57
2022-11-26T21:25:21.157Z,30.73
2022-11-26T21:27:54.330Z,25.70
2022-11-26T21:30:23.979Z,28.60
2022-11-26T21:32:53.802Z,33.07
2022-11-26T21:35:22.142Z,29.73
2022-11-26T21:37:50.579Z,33.70
2022-11-26T21:40:19.074Z,36.07
2022-11-26T21:42:47.641Z,33.37
2022-11-26T21:45:16.099Z,32.03
2022-11-26T21:47:45.010Z,33.73
2022-11-26T21:50:14.744Z,34.23
2022-11-26T21:52:43.563Z,44.23
2022-11-26T21:55:11.853Z,34.43
2022-11-26T21:57:40.099Z,35.93
2022-11-26T22:00:09.612Z,39.53
2022-11-26T22:02:38.071Z,39.57
2022-11-26T22:05:06.691Z,37.30
2022-11-26T22:07:37.132Z,37.80
2022-11-26T22:10:07.474Z,37.07
2022-11-26T22:12:35.739Z,42.57
2022-11-26T22:15:04.036Z,40.87
2022-11-26T22:17:32.336Z,43.80
2022-11-26T22:20:00.582Z,46.30
2022-11-26T22:22:29.243Z,43.73
2022-11-26T22:24:58.990Z,47.83
2022-11-26T22:27:27.333Z,43.50
2022-11-26T22:29:55.678Z,47.67
2022-11-26T22:32:23.981Z,47.90
2022-11-26T22:34:52.255Z,48.53
2022-11-26T22:37:20.535Z,38.07
2022-11-26T22:39:53.621Z,42.23
2022-11-26T22:42:23.787Z,37.23
2022-11-26T22:44:52.189Z,32.40
2022-11-26T22:47:20.510Z,40.43
2022-11-26T22:49:49.384Z,36.97
2022-11-26T22:52:17.889Z,38.60
2022-11-26T22:54:46.209Z,35.53
2022-11-26T22:57:14.488Z,35.97
2022-11-26T22:59:44.761Z,36.73
2022-11-26T23:02:13.138Z,35.70
2022-11-26T23:04:42.072Z,31.43
2022-11-26T23:07:10.423Z,37.60
2022-11-26T23:09:43.798Z,40.23
2022-11-26T23:12:14.744Z,33.80
2022-11-26T23:14:44.721Z,37.60
2022-11-26T23:17:13.224Z,38.07
2022-11-26T23:19:41.903Z,33.37
2022-11-26T23:22:10.436Z,34.97
2022-11-26T23:24:38.809Z,32.37
2022-11-26T23:27:07.108Z,35.57
2022-11-26T23:29:35.504Z,31.67
2022-11-26T23:32:05.203Z,32.70
2022-11-26T23:34:33.482Z,32.37
2022-11-26T23:37:01.723Z,33.83
2022-11-26T23:39:30.165Z,34.70
2022-11-26T23:41:58.470Z,32.97
2022-11-26T23:44:26.754Z,32.73
2022-11-26T23:46:54.995Z,32.03
2022-11-26T23:49:24.787Z,31.57
2022-11-26T23:51:53.067Z,31.93
2022-11-26T23:54:21.371Z,29.07
2022-11-26T23:56:49.742Z,35.03
2022-11-26T23:59:18.482Z,27.43
